Tiempo atmosférico en la estación meteorológica de Vilassar De Dalt, Barcelona (60 m.)



Fecha
DESCASC
Temp. máxima en grados centígrados (hora)
DESCASC
Temp. mínima en grados centígrados (hora)
DESCASC
Temp. media en grados centígrados
DESCASC
Racha de viento máxima en m/sg (hora)
DESCASC
Velocidad máxima media en intervalos de 10 minutos(hora)
DESCASC
Precipitaciones diarias en mm
DESCASC
Precipitaciones de 00:00 a 06:00 en mm
DESCASC
Precipitaciones de 06:00 a 12:00 en mm
DESCASC
Precipitaciones de 12:00 a 18:00 en mm
DESCASC
Precipitaciones de 18:00 a 24:00 en mm
DESCASC
29-10-2020 22.8 (12:10) 13.7 (00:50) 18.2 6.67 (15:50) 3.89 (15:20) 0 0 0 0 0
28-10-2020 -- (--) -- (--) -- -- (--) -- (--) -- 0 -- 0 0
27-10-2020 -- (--) -- (--) -- -- (--) -- (--) -- -- 0 0 0
26-10-2020 20.4 (12:20) 10.6 (00:00) 15.5 13.33 (02:20) 6.67 (02:20) 4.6 0 0 4.6 0
25-10-2020 22.5 (11:50) 16 (00:00) 19.3 13.89 (05:30) 8.33 (05:10) 0 0 0 0 0
24-10-2020 22.5 (13:30) 14.1 (00:00) 18.3 9.44 (18:20) 5 (17:50) 0 0 0 0 0
23-10-2020 25.6 (13:30) 14.9 (00:00) 20.3 10.28 (16:30) 5.83 (16:40) 0 0 0 0 0
22-10-2020 22.7 (13:00) 17.6 (00:00) 20.2 6.67 (14:20) 4.17 (15:00) 0.4 0 0 0 0.4
21-10-2020 24.2 (16:10) 17.4 (00:00) 20.8 5.83 (11:50) 3.33 (11:50) 0 0 0 0 0
20-10-2020 -- (--) -- (--) -- -- (--) -- (--) -- 0 -- 0 0
19-10-2020 22.4 (13:50) 13 (00:00) 17.7 6.94 (18:30) 3.89 (16:20) 0 0 0 0 0
18-10-2020 19.7 (16:30) 11 (00:00) 15.4 4.44 (13:50) 2.5 (11:10) 0 0 0 0 0
17-10-2020 21 (12:10) 10.1 (00:00) 15.6 5.28 (10:30) 2.22 (10:50) 0 0 0 0 0
16-10-2020 19.5 (11:30) 10.9 (00:00) 15.2 6.67 (06:10) 3.33 (06:10) 0 0 0 0 0
15-10-2020 19.5 (14:30) 7.7 (00:00) 13.6 8.33 (15:00) 4.72 (15:10) 0.4 0 0 0 0.4
14-10-2020 18.6 (11:40) 8.4 (00:00) 13.5 13.89 (19:20) 6.39 (19:20) 9.6 3.6 0.6 5 0.4
13-10-2020 20.5 (10:20) 13.9 (00:00) 17.2 7.78 (12:40) 5 (13:40) 1.8 0 0 0 1.8
12-10-2020 22.8 (14:00) 13.5 (00:00) 18.1 10 (11:00) 4.72 (09:40) 0 0 0 0 0
11-10-2020 -- (--) -- (--) -- -- (--) -- (--) -- 1 -- 0 0
10-10-2020 21 (10:40) 13.1 (00:00) 17.1 7.78 (20:40) 4.17 (22:00) 13.8 0 1.6 5.2 7
09-10-2020 25.7 (13:10) 16.6 (00:00) 21.2 6.39 (16:30) 3.61 (16:20) 0 0 0 0 0
08-10-2020 -- (--) -- (--) -- -- (--) -- (--) -- -- 0 0 0
07-10-2020 23.8 (14:10) 16.8 (00:00) 20.3 6.39 (11:10) 3.61 (11:10) 0 0 0 0 0
06-10-2020 25.3 (16:20) 13.4 (00:00) 19.3 11.11 (17:00) 5.56 (17:00) 0 0 0 0 0
05-10-2020 -- (--) -- (--) -- -- (--) -- (--) -- 0 -- 0 0
04-10-2020 23.1 (14:50) 11.2 (00:00) 17.2 12.78 (18:00) 6.94 (15:50) 0 0 0 0 0
03-10-2020 -- (--) -- (--) -- -- (--) -- (--) -- 0 0 0 --
02-10-2020 21.2 (13:30) 10.9 (00:00) 16.1 17.78 (14:40) 8.33 (14:40) 1.4 0 0.2 1 0.2
01-10-2020 26.3 (13:00) 17.7 (00:00) 22 9.44 (16:50) 5.28 (16:50) 0 0 0 0 0

Gráficas

Temp. máximas Temp. mínimas Temp. medias Precipitaciones Rachas de viento máximas Velocidades máximas media en intervalos de 10 minutos

Datos horarios

Fecha y hora oficial Temperatura (ºC) Velocidad del viento (km/h) Dirección del viento Racha (km/h) Dirección de racha Precipitación (mm) Presión (hPa) Tendencia (hPa) Humedad (%)
2020-10-30 23:00:00 -- -- -- -- -- -- -- -- --
2020-10-30 22:00:00 -- -- -- -- -- -- -- -- --
2020-10-30 21:00:00 -- -- -- -- -- -- -- -- --
2020-10-30 20:00:00 -- -- -- -- -- -- -- -- --
2020-10-30 19:00:00 -- -- -- -- -- -- -- -- --
2020-10-30 18:00:00 -- -- -- -- -- -- -- -- --
2020-10-30 17:00:00 -- -- -- -- -- -- -- -- --
2020-10-30 16:00:00 -- -- -- -- -- -- -- -- --
2020-10-30 15:00:00 -- -- -- -- -- -- -- -- --
2020-10-30 14:00:00 21 4 Sudeste 9 Este 0 -- -- 60
2020-10-30 13:00:00 20.4 4 Sudeste 10 Sudeste 0 -- -- 66
2020-10-30 12:00:00 21 4 Sudeste 13 Sudeste 0 -- -- 63
2020-10-30 11:00:00 20.5 6 Sudeste 13 Este 0 -- -- 60
2020-10-30 10:00:00 17.9 3 Sur 9 Este 0 -- -- 69
2020-10-30 09:00:00 18.6 5 Este 8 Este 0 -- -- 68
2020-10-30 08:00:00 16.9 0 Calma 12 Oeste 0 -- -- 71
2020-10-30 07:00:00 16 6 Noroeste 21 Norte 0 -- -- 67
2020-10-30 06:00:00 12.8 3 Oeste 6 Noroeste 0 -- -- 83
2020-10-30 05:00:00 13.1 2 Noroeste 8 Nordeste 0 -- -- 82
2020-10-30 04:00:00 13.3 0 Calma 10 Este 0 -- -- 82
2020-10-30 03:00:00 13.5 0 Calma 9 Noroeste 0 -- -- 83
2020-10-30 02:00:00 13.7 3 Norte 7 Noroeste 0 -- -- 86
2020-10-30 01:00:00 14 0 Calma 5 Noroeste 0 -- -- 88
2020-10-30 00:00:00 14.2 0 Calma 7 Noroeste 0 -- -- 87
2020-10-29 23:00:00 15 3 Norte 5 Noroeste 0 -- -- 87
2020-10-29 22:00:00 15.5 3 Nordeste 10 Oeste 0 -- -- 85
2020-10-29 21:00:00 15.6 3 Norte 8 Noroeste 0 -- -- 84
2020-10-29 20:00:00 16.2 3 Norte 9 Noroeste 0 -- -- 82
2020-10-29 19:00:00 16.8 4 Noroeste 7 Norte 0 -- -- 83
2020-10-29 18:00:00 17.8 3 Sudoeste 14 Sur 0 -- -- 81
2020-10-29 17:00:00 19.6 6 Sudoeste 22 Sudoeste 0 -- -- 77
2020-10-29 16:00:00 20.1 14 Sudoeste 24 Sudoeste 0 -- -- 75
2020-10-29 15:00:00 20.6 12 Sudoeste 22 Sudoeste 0 -- -- 75
2020-10-29 14:00:00 21 12 Sudoeste 24 Sudoeste 0 -- -- 73
2020-10-29 13:00:00 21.7 10 Sudoeste 24 Sudoeste 0 -- -- 68
2020-10-29 12:00:00 22.7 9 Sudoeste 23 Sur 0 -- -- 63
2020-10-29 11:00:00 19.6 3 Sur 11 Sur 0 -- -- 71
2020-10-29 10:00:00 20 4 Sudeste 9 Sur 0 -- -- 71
2020-10-29 09:00:00 18 0 Calma 4 Norte 0 -- -- 79
2020-10-29 08:00:00 16.4 0 Calma 5 Oeste 0 -- -- 83
2020-10-29 07:00:00 16.1 2 Noroeste 6 Norte 0 -- -- 84
2020-10-29 06:00:00 15.5 2 Norte 5 Norte 0 -- -- 85
2020-10-29 05:00:00 15 0 Calma 6 Noroeste 0 -- -- 86
2020-10-29 04:00:00 13.8 3 Noroeste 6 Noroeste 0 -- -- 88
2020-10-29 03:00:00 14.3 3 Norte 8 Norte 0 -- -- 85
2020-10-29 02:00:00 14.1 3 Norte 8 Norte 0 -- -- 84
2020-10-29 01:00:00 13.9 4 Norte 7 Noroeste 0 -- -- 83
2020-10-29 00:00:00 13.9 2 Norte 6 Noroeste 0 -- -- 80
2020-10-28 23:00:00 15.2 4 Norte 10 Norte 0 -- -- 75
2020-10-28 22:00:00 15.6 5 Norte 13 Norte 0 -- -- 73
2020-10-28 21:00:00 16.3 6 Norte 12 Norte 0 -- -- 70
2020-10-28 20:00:00 15.8 3 Norte 9 Nordeste 0 -- -- 73
2020-10-28 19:00:00 17 5 Norte 10 Norte 0 -- -- 66
2020-10-28 18:00:00 17.1 5 Norte 9 Noroeste 0 -- -- 71
2020-10-28 17:00:00 19.5 0 Calma 12 Sudoeste 0 -- -- 62
2020-10-28 16:00:00 19.5 9 Sudoeste 19 Sudoeste 0 -- -- 63
2020-10-28 15:00:00 19.5 13 Sudoeste 22 Sudoeste 0 -- -- 64
2020-10-28 14:00:00 19.6 4 Sudeste 12 Este 0 -- -- 57
2020-10-28 13:00:00 21.8 6 Sur 13 Sudoeste 0 -- -- 44
2020-10-28 12:00:00 20.6 4 Sudeste 12 Sudeste 0 -- -- 50
2020-10-28 11:00:00 19 7 Este 14 Sudeste 0 -- -- 57
2020-10-28 10:00:00 17.9 3 Sudeste 9 Este 0 -- -- 58
2020-10-28 09:00:00 20.5 2 Sudeste 5 Sur 0 -- -- 46
2020-10-28 08:00:00 15.1 0 Calma 5 Sudeste 0 -- -- 58
2020-10-28 07:00:00 -- -- -- -- -- -- -- -- --
2020-10-28 06:00:00 13 0 Calma 12 Noroeste 0 -- -- 62
2020-10-28 05:00:00 13.7 6 Norte 19 Oeste 0 -- -- 60
2020-10-28 04:00:00 14.1 7 Norte 19 Oeste 0 -- -- 58
2020-10-28 03:00:00 14.6 10 Noroeste 17 Noroeste 0 -- -- 57
2020-10-28 02:00:00 13.3 2 Norte 14 Oeste 0 -- -- 60
2020-10-28 01:00:00 12.8 3 Noroeste 7 Sudoeste 0 -- -- 64
2020-10-28 00:00:00 13.3 0 Calma 9 Norte 0 -- -- 61
2020-10-27 23:00:00 13.9 3 Sur 13 Oeste 0 -- -- 58
2020-10-27 22:00:00 15 5 Oeste 15 Sudoeste 0 -- -- 53
2020-10-27 21:00:00 14 7 Oeste 14 Oeste 0 -- -- 58
2020-10-27 20:00:00 13.9 4 Noroeste 7 Noroeste 0 -- -- 60
2020-10-27 19:00:00 14.3 3 Noroeste 8 Noroeste 0 -- -- 59
2020-10-27 18:00:00 15.6 5 Noroeste 9 Noroeste 0 -- -- 55
2020-10-27 17:00:00 17.5 5 Nordeste 10 Sudoeste 0 -- -- 50
2020-10-27 16:00:00 18.2 5 Sudeste 17 Sudeste 0 -- -- 53
2020-10-27 15:00:00 18.4 5 Sudeste 16 Este 0 -- -- 48
2020-10-27 14:00:00 18.6 6 Noroeste 13 Oeste 0 -- -- 45
2020-10-27 13:00:00 17.6 5 Noroeste 18 Sudoeste 0 -- -- 48
2020-10-27 12:00:00 19.2 9 Sudoeste 18 Oeste 0 -- -- 42
2020-10-27 11:00:00 16.4 9 Oeste 23 Oeste 0 -- -- 50
2020-10-27 10:00:00 14.9 5 Noroeste 18 Norte 0 -- -- 55
2020-10-27 09:00:00 13.7 7 Sudoeste 17 Oeste 0 -- -- 55
2020-10-27 08:00:00 13.9 2 Sudeste 13 Oeste 0 -- -- 54
2020-10-27 07:00:00 -- -- -- -- -- -- -- -- --
2020-10-27 06:00:00 -- -- -- -- -- -- -- -- --
2020-10-27 05:00:00 -- -- -- -- -- -- -- -- --
2020-10-27 04:00:00 -- -- -- -- -- -- -- -- --
2020-10-27 03:00:00 -- -- -- -- -- -- -- -- --
2020-10-27 02:00:00 11.4 6 Norte 14 Noroeste 0 -- -- 73
2020-10-27 01:00:00 11.7 8 Nordeste 18 Nordeste 0 -- -- 70
2020-10-27 00:00:00 10.9 5 Norte 11 Nordeste 0 -- -- 75
2020-10-26 23:00:00 11 4 Norte 8 Oeste 0 -- -- 84
2020-10-26 22:00:00 11.1 4 Nordeste 13 Oeste 0 -- -- 83
2020-10-26 21:00:00 11.2 4 Norte 10 Norte 0 -- -- 84
2020-10-26 20:00:00 12.4 6 Norte 13 Norte 0 -- -- 80
2020-10-26 19:00:00 13 6 Norte 10 Noroeste 0 -- -- 88
2020-10-26 18:00:00 14.1 3 Norte 10 Este 0.4 -- -- 85
2020-10-26 17:00:00 14.4 3 Sudeste 19 Este 4.2 -- -- 80
2020-10-26 16:00:00 14.8 7 Nordeste 38 Este 0 -- -- 70
2020-10-26 15:00:00 16.9 13 Sudeste 25 Este 0 -- -- 61
2020-10-26 14:00:00 16 15 Este 27 Este 0 -- -- 67
2020-10-26 13:00:00 20.1 6 Sur 19 Sudeste 0 -- -- 46
2020-10-26 12:00:00 20 9 Sudoeste 18 Sudoeste 0 -- -- 45
2020-10-26 11:00:00 18.3 9 Oeste 24 Noroeste 0 -- -- 49
2020-10-26 10:00:00 15.7 13 Noroeste 26 Norte 0 -- -- 56
2020-10-26 09:00:00 14.7 3 Noroeste 10 Norte 0 -- -- 62
2020-10-26 08:00:00 14.3 4 Nordeste 18 Sudeste 0 -- -- 85
2020-10-26 07:00:00 15.2 4 Norte 13 Este 0 -- -- 81
2020-10-26 06:00:00 15.6 5 Este 13 Norte 0 -- -- 78
2020-10-26 05:00:00 16.5 4 Nordeste 34 Noroeste 0 -- -- 60
2020-10-26 04:00:00 17.1 20 Norte 36 Noroeste 0 -- -- 58
2020-10-26 03:00:00 17.4 16 Noroeste 48 Oeste 0 -- -- 56
2020-10-26 02:00:00 17.9 12 Oeste 31 Oeste 0 -- -- 56
2020-10-26 01:00:00 18.5 9 Oeste 20 Oeste 0 -- -- 52
2020-10-26 00:00:00 17.5 7 Oeste 14 Oeste 0 -- -- 58
2020-10-25 23:00:00 17 7 Oeste 13 Oeste 0 -- -- 57
2020-10-25 22:00:00 16.8 4 Oeste 9 Oeste 0 -- -- 61
2020-10-25 21:00:00 16 4 Sudoeste 14 Oeste 0 -- -- 69
2020-10-25 20:00:00 17.2 9 Oeste 17 Oeste 0 -- -- 68
2020-10-25 19:00:00 17.5 9 Sudoeste 19 Sudoeste 0 -- -- 67
2020-10-25 18:00:00 18.5 13 Sudoeste 31 Sudoeste 0 -- -- 61
2020-10-25 17:00:00 19.6 16 Sudoeste 31 Sudoeste 0 -- -- 60
2020-10-25 16:00:00 20.9 16 Sudoeste 28 Sudoeste 0 -- -- 56
2020-10-25 15:00:00 21.5 16 Oeste 35 Noroeste 0 -- -- 45
2020-10-25 14:00:00 22.5 22 Oeste 42 Oeste 0 -- -- 42
2020-10-25 13:00:00 21.7 18 Oeste 35 Sudoeste 0 -- -- 46
2020-10-25 12:00:00 22 15 Oeste 31 Noroeste 0 -- -- 45
2020-10-25 11:00:00 19.7 19 Oeste 45 Oeste 0 -- -- 50
2020-10-25 10:00:00 18.3 21 Sudoeste 47 Sudoeste 0 -- -- 54
2020-10-25 09:00:00 18.2 19 Oeste 42 Oeste 0 -- -- 53
2020-10-25 08:00:00 16.6 20 Noroeste 47 Oeste 0 -- -- 57
2020-10-25 07:00:00 17.6 22 Noroeste 46 Noroeste 0 -- -- 53
2020-10-25 06:00:00 17.8 23 Noroeste 50 Oeste 0 -- -- 52
2020-10-25 05:00:00 17 26 Noroeste 47 Noroeste 0 -- -- 55
2020-10-25 04:00:00 16.8 17 Oeste 39 Oeste 0 -- -- 55
2020-10-25 03:00:00 17.1 18 Oeste 32 Oeste 0 -- -- 54
2020-10-25 02:00:00 17.6 17 Oeste 32 Oeste 0 -- -- 51
2020-10-25 01:00:00 17.8 17 Oeste 34 Sudoeste 0 -- -- 54
2020-10-25 00:00:00 17.3 14 Oeste 29 Oeste 0 -- -- 59
2020-10-24 23:00:00 16.4 10 Oeste 21 Oeste 0 -- -- 65
2020-10-24 22:00:00 15.9 7 Sudoeste 15 Sudoeste 0 -- -- 61
2020-10-24 21:00:00 16.9 9 Oeste 15 Oeste 0 -- -- 63
2020-10-24 20:00:00 17.4 8 Oeste 25 Sudoeste 0 -- -- 66
2020-10-24 19:00:00 18.4 13 Sudoeste 34 Sudoeste 0 -- -- 64
2020-10-24 18:00:00 19.9 16 Sudoeste 34 Oeste 0 -- -- 58
2020-10-24 17:00:00 20.7 17 Sudoeste 31 Sudoeste 0 -- -- 59
2020-10-24 16:00:00 20.8 13 Sudoeste 29 Sudoeste 0 -- -- 57
2020-10-24 15:00:00 21.2 14 Sudoeste 25 Sudoeste 0 -- -- 54
2020-10-24 14:00:00 21.6 10 Noroeste 23 Oeste 0 -- -- 46
2020-10-24 13:00:00 21.5 6 Oeste 22 Noroeste 0 -- -- 47
2020-10-24 12:00:00 20.7 7 Norte 15 Norte 0 -- -- 48
2020-10-24 11:00:00 19.4 5 Noroeste 12 Noroeste 0 -- -- 51
2020-10-24 10:00:00 19.2 5 Norte 12 Norte 0 -- -- 53
2020-10-24 09:00:00 16.4 3 Oeste 9 Noroeste 0 -- -- 62
2020-10-24 08:00:00 -- -- -- -- -- -- -- -- --
2020-10-24 07:00:00 14.5 6 Noroeste 13 Noroeste 0 -- -- 64
2020-10-24 06:00:00 14.3 5 Norte 11 Nordeste 0 -- -- 69
2020-10-24 05:00:00 15.2 6 Norte 12 Noroeste 0 -- -- 71
2020-10-24 04:00:00 15.8 7 Norte 12 Norte 0 -- -- 81
2020-10-24 03:00:00 15.7 7 Norte 12 Noroeste 0 -- -- 82
2020-10-24 02:00:00 15.4 4 Noroeste 9 Norte 0 -- -- 79
2020-10-24 01:00:00 14.8 4 Norte 8 Norte 0 -- -- 68
2020-10-24 00:00:00 14.9 4 Norte 8 Norte 0 -- -- 65
2020-10-23 23:00:00 16.4 3 Norte 10 Oeste 0 -- -- 59
2020-10-23 22:00:00 18.1 6 Oeste 17 Noroeste 0 -- -- 52
2020-10-23 21:00:00 19.4 8 Noroeste 20 Noroeste 0 -- -- 48
2020-10-23 20:00:00 19.8 10 Oeste 24 Noroeste 0 -- -- 48
2020-10-23 19:00:00 20.5 9 Oeste 28 Sudoeste 0 -- -- 45
2020-10-23 18:00:00 22.9 16 Sudoeste 30 Sudoeste 0 -- -- 40
2020-10-23 17:00:00 23.8 19 Sudoeste 37 Sudoeste 0 -- -- 40
2020-10-23 16:00:00 24.3 15 Oeste 31 Noroeste 0 -- -- 43
2020-10-23 15:00:00 24.9 18 Oeste 35 Sudoeste 0 -- -- 42
2020-10-23 14:00:00 25 11 Oeste 31 Oeste 0 -- -- 48
2020-10-23 13:00:00 24.6 16 Sudoeste 30 Oeste 0 -- -- 54
2020-10-23 12:00:00 23.2 17 Sudoeste 26 Sudoeste 0 -- -- 61
2020-10-23 11:00:00 22 14 Sudoeste 22 Oeste 0 -- -- 66
2020-10-23 10:00:00 21.3 10 Oeste 21 Oeste 0 -- -- 71
2020-10-23 09:00:00 18.1 10 Oeste 26 Oeste 0 -- -- 83
2020-10-23 08:00:00 -- -- -- -- -- -- -- -- --
2020-10-23 07:00:00 -- -- -- -- -- -- -- -- --
2020-10-23 06:00:00 -- -- -- -- -- -- -- -- --
2020-10-23 05:00:00 -- -- -- -- -- -- -- -- --
2020-10-23 04:00:00 -- -- -- -- -- -- -- -- --
2020-10-23 03:00:00 18.1 4 Noroeste 7 Noroeste 0 -- -- 88
2020-10-23 02:00:00 17.5 4 Noroeste 8 Norte 0 -- -- 88
2020-10-23 01:00:00 17.8 0 Calma 8 Noroeste 0 -- -- 86
2020-10-23 00:00:00 17.7 5 Noroeste 9 Norte 0 -- -- 87
2020-10-22 23:00:00 17.8 3 Norte 8 Nordeste 0 -- -- 90
2020-10-22 22:00:00 18.8 4 Norte 14 Sudoeste 0.4 -- -- 88
2020-10-22 21:00:00 20 8 Oeste 12 Norte 0 -- -- 84
2020-10-22 20:00:00 20.1 3 Norte 11 Noroeste 0 -- -- 84
2020-10-22 19:00:00 20.3 2 Noroeste 10 Este 0 -- -- 87
2020-10-22 18:00:00 20.4 9 Este 18 Este 0 -- -- 86
2020-10-22 17:00:00 21.5 5 Nordeste 22 Este 0 -- -- 80
2020-10-22 16:00:00 21.8 15 Este 24 Este 0 -- -- 77
2020-10-22 15:00:00 22.3 15 Este 24 Nordeste 0 -- -- 74
2020-10-22 14:00:00 21.8 12 Este 20 Este 0 -- -- 72
2020-10-22 13:00:00 22.7 9 Nordeste 17 Nordeste 0 -- -- 70
2020-10-22 12:00:00 21.8 7 Nordeste 17 Nordeste 0 -- -- 77
2020-10-22 11:00:00 21.5 6 Nordeste 13 Nordeste 0 -- -- 79
2020-10-22 10:00:00 21.1 6 Nordeste 12 Este 0 -- -- 79
2020-10-22 09:00:00 19.4 3 Norte 8 Norte 0 -- -- 83
2020-10-22 08:00:00 19.5 4 Norte 9 Norte 0 -- -- 85
2020-10-22 07:00:00 18.6 3 Nordeste 5 Norte 0 -- -- 89
2020-10-22 06:00:00 18.7 0 Calma 9 Noroeste 0 -- -- 90
2020-10-22 05:00:00 19 7 Norte 11 Norte 0 -- -- 91
2020-10-22 04:00:00 18.7 3 Noroeste 6 Noroeste 0 -- -- 91
2020-10-22 03:00:00 18.2 2 Norte 7 Norte 0 -- -- 92
2020-10-22 02:00:00 18.9 4 Noroeste 6 Noroeste 0 -- -- 93
2020-10-22 01:00:00 19.2 0 Calma 4 Norte 0 -- -- 92
2020-10-22 00:00:00 -- -- -- -- -- -- -- -- --
2020-10-21 23:00:00 -- -- -- -- -- -- -- -- --
2020-10-21 22:00:00 -- -- -- -- -- -- -- -- --
2020-10-21 21:00:00 -- -- -- -- -- -- -- -- --
2020-10-21 20:00:00 -- -- -- -- -- -- -- -- --
2020-10-21 19:00:00 -- -- -- -- -- -- -- -- --
2020-10-21 18:00:00 -- -- -- -- -- -- -- -- --
2020-10-21 17:00:00 -- -- -- -- -- -- -- -- --
2020-10-21 16:00:00 -- -- -- -- -- -- -- -- --
2020-10-21 15:00:00 23.3 10 Sudeste 17 Este 0 -- -- 72
2020-10-21 14:00:00 23.4 6 Este 17 Este 0 -- -- 71
2020-10-21 13:00:00 22.9 10 Este 21 Este 0 -- -- 75
2020-10-21 12:00:00 22.1 11 Este 21 Este 0 -- -- 79
2020-10-21 11:00:00 21.9 10 Nordeste 19 Nordeste 0 -- -- 79
2020-10-21 10:00:00 21 3 Nordeste 13 Este 0 -- -- 82
2020-10-21 09:00:00 20.8 4 Nordeste 14 Nordeste 0 -- -- 84
2020-10-21 08:00:00 20.3 8 Este 15 Este 0 -- -- 86
2020-10-21 07:00:00 19.6 4 Nordeste 15 Este 0 -- -- 89
2020-10-21 06:00:00 19.9 8 Este 16 Este 0 -- -- 88
2020-10-21 05:00:00 19.8 5 Nordeste 14 Nordeste 0 -- -- 89
2020-10-21 04:00:00 19.8 8 Este 18 Este 0 -- -- 89
2020-10-21 03:00:00 19.7 7 Este 17 Este 0 -- -- 89
2020-10-21 02:00:00 19.6 10 Este 19 Nordeste 0 -- -- 90
2020-10-21 01:00:00 19.6 9 Este 18 Este 0 -- -- 92
2020-10-21 00:00:00 19.6 10 Este 19 Este 0 -- -- 92
2020-10-20 23:00:00 19.5 8 Este 18 Nordeste 0 -- -- 92
2020-10-20 22:00:00 19.3 10 Este 19 Este 0 -- -- 90
2020-10-20 21:00:00 19.4 8 Este 22 Este 0 -- -- 88
2020-10-20 20:00:00 19.6 10 Este 21 Este 0 -- -- 84
2020-10-20 19:00:00 19.5 9 Este 20 Nordeste 0 -- -- 80
2020-10-20 18:00:00 20.2 7 Nordeste 19 Nordeste 0 -- -- 75
2020-10-20 17:00:00 20.2 9 Este 16 Este 0 -- -- 73
2020-10-20 16:00:00 -- -- -- -- -- -- -- -- --
2020-10-20 15:00:00 -- -- -- -- -- -- -- -- --
2020-10-20 14:00:00 -- -- -- -- -- -- -- -- --
2020-10-20 13:00:00 -- -- -- -- -- -- -- -- --
2020-10-20 12:00:00 -- -- -- -- -- -- -- -- --
2020-10-20 11:00:00 -- -- -- -- -- -- -- -- --
2020-10-20 10:00:00 -- -- -- -- -- -- -- -- --
2020-10-20 09:00:00 -- -- -- -- -- -- -- -- --
2020-10-20 08:00:00 -- -- -- -- -- -- -- -- --
2020-10-20 07:00:00 16.4 4 Norte 6 Noroeste 0 -- -- 88
2020-10-20 06:00:00 16.4 2 Noroeste 4 Oeste 0 -- -- 88
2020-10-20 05:00:00 15.6 3 Noroeste 8 Oeste 0 -- -- 88
2020-10-20 04:00:00 16.3 4 Noroeste 8 Oeste 0 -- -- 85
2020-10-20 03:00:00 16.6 3 Noroeste 8 Noroeste 0 -- -- 84
2020-10-20 02:00:00 16.1 4 Noroeste 6 Noroeste 0 -- -- 85
2020-10-20 01:00:00 16.6 3 Noroeste 9 Oeste 0 -- -- 83
2020-10-20 00:00:00 16.8 5 Noroeste 10 Oeste 0 -- -- 81
2020-10-19 23:00:00 16.8 5 Oeste 11 Noroeste 0 -- -- 81
2020-10-19 22:00:00 16.5 4 Oeste 10 Oeste 0 -- -- 80
2020-10-19 21:00:00 17.3 5 Oeste 15 Oeste 0 -- -- 76
2020-10-19 20:00:00 17.8 9 Oeste 23 Sudoeste 0 -- -- 75
2020-10-19 19:00:00 18.7 11 Sudoeste 25 Sudoeste 0 -- -- 73
2020-10-19 18:00:00 19.7 10 Sudoeste 21 Sudoeste 0 -- -- 72
2020-10-19 17:00:00 20.1 11 Sudoeste 23 Sudoeste 0 -- -- 69
2020-10-19 16:00:00 21.3 12 Sudoeste 24 Sur 0 -- -- 66
2020-10-19 15:00:00 21.4 9 Sur 24 Sudoeste 0 -- -- 65
2020-10-19 14:00:00 22.1 11 Sudoeste 19 Sudoeste 0 -- -- 60
2020-10-19 13:00:00 20.4 6 Sudoeste 14 Sudoeste 0 -- -- 66
2020-10-19 12:00:00 20.2 8 Sudoeste 17 Sudoeste 0 -- -- 66
2020-10-19 11:00:00 21 3 Sur 8 Sur 0 -- -- 65
2020-10-19 10:00:00 19.3 0 Calma 4 Sur 0 -- -- 68
2020-10-19 09:00:00 15.3 2 Norte 4 Norte 0 -- -- 82
2020-10-19 08:00:00 14.2 2 Norte 4 Norte 0 -- -- 85
2020-10-19 07:00:00 13.5 0 Calma 8 Oeste 0 -- -- 84
2020-10-19 06:00:00 15.2 5 Noroeste 10 Noroeste 0 -- -- 79
2020-10-19 05:00:00 14.2 6 Noroeste 12 Oeste 0 -- -- 78
2020-10-19 04:00:00 13.1 6 Noroeste 10 Noroeste 0 -- -- 83
2020-10-19 03:00:00 13.2 0 Calma 6 Noroeste 0 -- -- 85
2020-10-19 02:00:00 13.6 2 Este 15 Noroeste 0 -- -- 80
2020-10-19 01:00:00 15.1 6 Noroeste 15 Noroeste 0 -- -- 73
2020-10-19 00:00:00 -- -- -- -- -- -- -- -- --
2020-10-18 23:00:00 -- -- -- -- -- -- -- -- --
2020-10-18 22:00:00 -- -- -- -- -- -- -- -- --
2020-10-18 21:00:00 -- -- -- -- -- -- -- -- --
2020-10-18 20:00:00 -- -- -- -- -- -- -- -- --
2020-10-18 19:00:00 -- -- -- -- -- -- -- -- --
2020-10-18 18:00:00 -- -- -- -- -- -- -- -- --
2020-10-18 17:00:00 -- -- -- -- -- -- -- -- --
2020-10-18 16:00:00 -- -- -- -- -- -- -- -- --
2020-10-18 15:00:00 -- -- -- -- -- -- -- -- --
2020-10-18 14:00:00 -- -- -- -- -- -- -- -- --
2020-10-18 13:00:00 -- -- -- -- -- -- -- -- --
2020-10-18 12:00:00 -- -- -- -- -- -- -- -- --
2020-10-18 11:00:00 -- -- -- -- -- -- -- -- --
2020-10-18 10:00:00 -- -- -- -- -- -- -- -- --
2020-10-18 09:00:00 -- -- -- -- -- -- -- -- --
2020-10-18 08:00:00 -- -- -- -- -- -- -- -- --
2020-10-18 07:00:00 11.6 4 Norte 7 Norte 0 -- -- 76
2020-10-18 06:00:00 13 6 Norte 9 Noroeste 0 -- -- 70
2020-10-18 05:00:00 12.5 6 Noroeste 10 Noroeste 0 -- -- 70
2020-10-18 04:00:00 11.3 4 Norte 6 Noroeste 0 -- -- 74
2020-10-18 03:00:00 11 2 Noroeste 6 Norte 0 -- -- 78
2020-10-18 02:00:00 11.5 3 Norte 6 Norte 0 -- -- 75
2020-10-18 01:00:00 12.1 4 Noroeste 8 Noroeste 0 -- -- 72
2020-10-18 00:00:00 12.5 4 Noroeste 7 Noroeste 0 -- -- 70
2020-10-17 23:00:00 12.7 4 Norte 8 Noroeste 0 -- -- 69
2020-10-17 22:00:00 13 3 Norte 8 Norte 0 -- -- 67
2020-10-17 21:00:00 14 5 Norte 8 Norte 0 -- -- 65
2020-10-17 20:00:00 14.4 6 Norte 9 Norte 0 -- -- 63
2020-10-17 19:00:00 15.9 3 Noroeste 9 Sudoeste 0 -- -- 58
2020-10-17 18:00:00 18.4 5 Sudoeste 12 Sudoeste 0 -- -- 50
2020-10-17 17:00:00 18.6 7 Sudoeste 17 Sudoeste 0 -- -- 48
2020-10-17 16:00:00 18.7 6 Sur 16 Sur 0 -- -- 45
2020-10-17 15:00:00 19.4 5 Sur 15 Sur 0 -- -- 42
2020-10-17 14:00:00 19.5 5 Sur 14 Sudeste 0 -- -- 39
2020-10-17 13:00:00 20.2 4 Sudeste 13 Sudeste 0 -- -- 40
2020-10-17 12:00:00 20.2 3 Sudeste 14 Norte 0 -- -- 40
2020-10-17 11:00:00 17.7 6 Norte 19 Norte 0 -- -- 41
2020-10-17 10:00:00 18.9 2 Noroeste 8 Oeste 0 -- -- 43
2020-10-17 09:00:00 14.5 0 Calma 8 Norte 0 -- -- 54
2020-10-17 08:00:00 10.8 5 Noroeste 8 Noroeste 0 -- -- 58
2020-10-17 07:00:00 10.9 7 Norte 8 Norte 0 -- -- 60
2020-10-17 06:00:00 10.4 0 Calma 7 Norte 0 -- -- 70
2020-10-17 05:00:00 11.7 6 Norte 8 Norte 0 -- -- 63
2020-10-17 04:00:00 11.8 6 Norte 8 Noroeste 0 -- -- 59
2020-10-17 03:00:00 11.7 6 Norte 8 Noroeste 0 -- -- 56
2020-10-17 02:00:00 11.8 6 Norte 8 Norte 0 -- -- 57
2020-10-17 01:00:00 11.5 5 Noroeste 7 Norte 0 -- -- 61
2020-10-17 00:00:00 -- 2 Norte 8 Norte 0 -- -- --
2020-10-16 23:00:00 12 4 Norte 8 Norte 0 -- -- 60
2020-10-16 22:00:00 12.8 5 Norte 10 Oeste 0 -- -- 56
2020-10-16 21:00:00 13.8 5 Noroeste 11 Oeste 0 -- -- 53
2020-10-16 20:00:00 13.9 5 Oeste 9 Oeste 0 -- -- 55
2020-10-16 19:00:00 15.3 6 Sudoeste 19 Sudoeste 0 -- -- 53
2020-10-16 18:00:00 18 9 Sudoeste 18 Sudoeste 0 -- -- 44
2020-10-16 17:00:00 17.9 10 Sudoeste 20 Sur 0 -- -- 49
2020-10-16 16:00:00 18.5 7 Sur 17 Sudoeste 0 -- -- 49
2020-10-16 15:00:00 18.6 6 Sur 16 Sudoeste 0 -- -- 49
2020-10-16 14:00:00 17.9 5 Sudeste 14 Este 0 -- -- 51
2020-10-16 13:00:00 17.7 7 Este 13 Este 0 -- -- 43
2020-10-16 12:00:00 18.2 5 Sudeste 13 Sudeste 0 -- -- 56
2020-10-16 11:00:00 17.9 3 Este 14 Noroeste 0 -- -- 54
2020-10-16 10:00:00 15.4 9 Norte 17 Norte 0 -- -- 54
2020-10-16 09:00:00 12.9 8 Norte 15 Norte 0 -- -- 57
2020-10-16 08:00:00 -- 7 Noroeste 18 Noroeste 0 -- -- --
2020-10-16 07:00:00 11.3 8 Noroeste 24 Noroeste 0 -- -- 57
2020-10-16 06:00:00 11.4 9 Norte 21 Noroeste 0 -- -- 60
2020-10-16 05:00:00 12 6 Noroeste 11 Norte 0 -- -- 66
2020-10-16 04:00:00 12.5 7 Noroeste 10 Noroeste 0 -- -- 65
2020-10-16 03:00:00 11.9 5 Norte 15 Norte 0 -- -- 64
2020-10-16 02:00:00 12.6 5 Norte 9 Noroeste 0 -- -- 65
2020-10-16 01:00:00 12.5 6 Norte 10 Noroeste 0 -- -- 67
2020-10-16 00:00:00 11.6 7 Noroeste 11 Noroeste 0 -- -- 67
2020-10-15 23:00:00 12 6 Norte 10 Norte 0 -- -- 65
2020-10-15 22:00:00 11.9 5 Noroeste 12 Noroeste 0 -- -- 67
2020-10-15 21:00:00 12.1 6 Noroeste 10 Noroeste 0 -- -- 70
2020-10-15 20:00:00 12.4 6 Norte 13 Noroeste 0 -- -- 71
2020-10-15 19:00:00 13 5 Nordeste 23 Norte 0.4 -- -- 77
2020-10-15 18:00:00 16.1 10 Este 18 Este 0 -- -- 54
2020-10-15 17:00:00 16.2 7 Este 17 Este 0 -- -- 50
2020-10-15 16:00:00 17.1 10 Este 25 Sudeste 0 -- -- 51
2020-10-15 15:00:00 18.6 13 Nordeste 30 Nordeste 0 -- -- 43
2020-10-15 14:00:00 18.8 8 Oeste 19 Oeste 0 -- -- 41
2020-10-15 13:00:00 18.7 5 Sudoeste 22 Noroeste 0 -- -- 43
2020-10-15 12:00:00 16.7 8 Norte 21 Norte 0 -- -- 48
2020-10-15 11:00:00 16.2 7 Noroeste 18 Noroeste 0 -- -- 47
2020-10-15 10:00:00 14.3 10 Norte 26 Norte 0 -- -- 53
2020-10-15 09:00:00 12 13 Norte 24 Noroeste 0 -- -- 60
2020-10-15 08:00:00 -- -- -- -- -- -- -- -- --
2020-10-15 07:00:00 -- -- -- -- -- -- -- -- --
2020-10-15 06:00:00 -- -- -- -- -- -- -- -- --
2020-10-15 05:00:00 -- -- -- -- -- -- -- -- --
2020-10-15 04:00:00 -- -- -- -- -- -- -- -- --
2020-10-15 03:00:00 -- -- -- -- -- -- -- -- --
2020-10-15 02:00:00 -- -- -- -- -- -- -- -- --
2020-10-15 01:00:00 -- -- -- -- -- -- -- -- --
2020-10-15 00:00:00 -- -- -- -- -- -- -- -- --
2020-10-14 23:00:00 -- -- -- -- -- -- -- -- --
2020-10-14 22:00:00 -- -- -- -- -- -- -- -- --
2020-10-14 21:00:00 -- -- -- -- -- -- -- -- --
2020-10-14 20:00:00 -- -- -- -- -- -- -- -- --
2020-10-14 19:00:00 -- -- -- -- -- -- -- -- --
2020-10-14 18:00:00 -- -- -- -- -- -- -- -- --
2020-10-14 17:00:00 -- -- -- -- -- -- -- -- --
2020-10-14 16:00:00 -- -- -- -- -- -- -- -- --
2020-10-14 15:00:00 -- -- -- -- -- -- -- -- --
2020-10-14 14:00:00 -- -- -- -- -- -- -- -- --
2020-10-14 13:00:00 -- -- -- -- -- -- -- -- --
2020-10-14 12:00:00 -- -- -- -- -- -- -- -- --
2020-10-14 11:00:00 -- -- -- -- -- -- -- -- --
2020-10-14 10:00:00 -- -- -- -- -- -- -- -- --
2020-10-14 09:00:00 -- -- -- -- -- -- -- -- --
2020-10-14 08:00:00 -- -- -- -- -- -- -- -- --
2020-10-14 07:00:00 12.9 3 Nordeste 23 Este 0.6 -- -- 93
2020-10-14 06:00:00 13.1 3 Norte 15 Norte 3.2 -- -- 92
2020-10-14 05:00:00 13.5 5 Nordeste 15 Nordeste 0.4 -- -- 89
2020-10-14 04:00:00 13.8 5 Nordeste 18 Norte 0 -- -- 87
2020-10-14 03:00:00 13.7 9 Nordeste 23 Nordeste 0 -- -- 87
2020-10-14 02:00:00 13.6 9 Este 19 Este 0 -- -- 79
2020-10-14 01:00:00 15.3 6 Noroeste 14 Oeste 0 -- -- 63
2020-10-14 00:00:00 14.1 5 Noroeste 10 Noroeste 0 -- -- 80
2020-10-13 23:00:00 14.5 6 Noroeste 12 Oeste 0 -- -- 83
2020-10-13 22:00:00 14.7 5 Oeste 13 Oeste 0 -- -- 87
2020-10-13 21:00:00 15.1 3 Noroeste 8 Noroeste 0 -- -- 88
2020-10-13 20:00:00 16.1 3 Noroeste 9 Norte 0 -- -- 89
2020-10-13 19:00:00 16.7 3 Norte 20 Este 1.8 -- -- 84
2020-10-13 18:00:00 17.8 12 Este 23 Nordeste 0 -- -- 76
2020-10-13 17:00:00 18.5 15 Este 26 Sudeste 0 -- -- 72
2020-10-13 16:00:00 18.9 14 Este 23 Este 0 -- -- 69
2020-10-13 15:00:00 18 13 Este 27 Este 0 -- -- 72
2020-10-13 14:00:00 19.6 12 Sudeste 27 Sudeste 0 -- -- 67
2020-10-13 13:00:00 18.9 15 Este 28 Este 0 -- -- 69
2020-10-13 12:00:00 19.7 13 Este 26 Este 0 -- -- 61
2020-10-13 11:00:00 19.2 9 Este 18 Este 0 -- -- 61
2020-10-13 10:00:00 19.4 5 Norte 16 Noroeste 0 -- -- 53
2020-10-13 09:00:00 17.4 2 Oeste 15 Norte 0 -- -- 55
2020-10-13 08:00:00 14.4 8 Norte 15 Norte 0 -- -- 62
2020-10-13 07:00:00 13.9 4 Norte 10 Noroeste 0 -- -- 64
2020-10-13 06:00:00 14.6 3 Norte 19 Noroeste 0 -- -- 65
2020-10-13 05:00:00 15.9 0 Calma 11 Norte 0 -- -- 70
2020-10-13 04:00:00 -- -- -- -- -- -- -- -- --
2020-10-13 03:00:00 15.5 3 Norte 10 Nordeste 0 -- -- 67
2020-10-13 02:00:00 15.3 5 Norte 10 Norte 0 -- -- 67
2020-10-13 01:00:00 -- -- -- -- -- -- -- -- --
2020-10-13 00:00:00 16.2 5 Nordeste 21 Este 0 -- -- 65
2020-10-12 23:00:00 17.1 9 Este 21 Este 0 -- -- 67
2020-10-12 22:00:00 15.8 5 Norte 10 Norte 0 -- -- 67
2020-10-12 21:00:00 16.4 5 Norte 12 Norte 0 -- -- 62
2020-10-12 20:00:00 16.6 5 Norte 11 Este 0 -- -- 62
2020-10-12 19:00:00 18.3 7 Nordeste 17 Este 0 -- -- 58
2020-10-12 18:00:00 -- -- -- -- -- -- -- -- --
2020-10-12 17:00:00 21.3 9 Sur 21 Sur 0 -- -- 51
2020-10-12 16:00:00 21.4 11 Sudoeste 23 Sudoeste 0 -- -- 49
2020-10-12 15:00:00 22.1 6 Sur 24 Noroeste 0 -- -- 39
2020-10-12 14:00:00 22.8 6 Noroeste 23 Oeste 0 -- -- 29
2020-10-12 13:00:00 21.2 13 Noroeste 31 Noroeste 0 -- -- 33
2020-10-12 12:00:00 19.6 15 Noroeste 35 Noroeste 0 -- -- 37
2020-10-12 11:00:00 18 16 Noroeste 36 Noroeste 0 -- -- 40
2020-10-12 10:00:00 16 17 Noroeste 32 Noroeste 0 -- -- 44
2020-10-12 09:00:00 14.9 13 Noroeste 27 Noroeste 0 -- -- 46
2020-10-12 08:00:00 13.5 12 Noroeste 27 Noroeste 0 -- -- 46
2020-10-12 07:00:00 13.8 9 Noroeste 27 Noroeste 0 -- -- 46
2020-10-12 06:00:00 14 9 Noroeste 22 Noroeste 0 -- -- 45
2020-10-12 05:00:00 14.4 6 Noroeste 19 Noroeste 0 -- -- 46
2020-10-12 04:00:00 -- -- -- -- -- -- -- -- --
2020-10-12 03:00:00 -- -- -- -- -- -- -- -- --
2020-10-12 02:00:00 -- -- -- -- -- -- -- -- --
2020-10-12 01:00:00 -- -- -- -- -- -- -- -- --
2020-10-12 00:00:00 -- -- -- -- -- -- -- -- --
2020-10-11 23:00:00 -- -- -- -- -- -- -- -- --
2020-10-11 22:00:00 -- -- -- -- -- -- -- -- --
2020-10-11 21:00:00 -- -- -- -- -- -- -- -- --
2020-10-11 20:00:00 -- -- -- -- -- -- -- -- --
2020-10-11 19:00:00 -- -- -- -- -- -- -- -- --
2020-10-11 18:00:00 -- -- -- -- -- -- -- -- --
2020-10-11 17:00:00 -- -- -- -- -- -- -- -- --
2020-10-11 16:00:00 -- -- -- -- -- -- -- -- --
2020-10-11 15:00:00 -- -- -- -- -- -- -- -- --
2020-10-11 14:00:00 -- -- -- -- -- -- -- -- --
2020-10-11 13:00:00 -- -- -- -- -- -- -- -- --
2020-10-11 12:00:00 -- -- -- -- -- -- -- -- --
2020-10-11 11:00:00 -- -- -- -- -- -- -- -- --
2020-10-11 10:00:00 -- -- -- -- -- -- -- -- --
2020-10-11 09:00:00 -- -- -- -- -- -- -- -- --
2020-10-11 08:00:00 -- -- -- -- -- -- -- -- --
2020-10-11 07:00:00 13 8 Noroeste 16 Norte 0 -- -- 88
2020-10-11 06:00:00 13.4 3 Este 12 Oeste 0 -- -- 92
2020-10-11 05:00:00 13.6 0 Calma 11 Oeste 0 -- -- 93
2020-10-11 04:00:00 13.6 5 Sudoeste 10 Oeste 0 -- -- 94
2020-10-11 03:00:00 13.5 3 Oeste 8 Este 0 -- -- 94
2020-10-11 02:00:00 13.2 5 Nordeste 10 Nordeste 0 -- -- 94
2020-10-11 01:00:00 13.1 2 Oeste 8 Este 1 -- -- 94
2020-10-11 00:00:00 13.1 3 Sudeste 22 Este 1.4 -- -- 92
2020-10-10 23:00:00 13.2 14 Este 23 Este 3.4 -- -- 94
2020-10-10 22:00:00 15.1 15 Este 26 Este 0.6 -- -- 92
2020-10-10 21:00:00 16.3 10 Este 28 Este 0 -- -- 91
2020-10-10 20:00:00 17.5 4 Noroeste 8 Noroeste 0.6 -- -- 92
2020-10-10 19:00:00 17.9 0 Calma 11 Sudeste 1 -- -- 89
2020-10-10 18:00:00 18.3 5 Sur 13 Sur 0 -- -- 88
2020-10-10 17:00:00 18.7 2 Sur 5 Sur 0 -- -- 87
2020-10-10 16:00:00 19.2 4 Sudeste 9 Nordeste 0 -- -- 84
2020-10-10 15:00:00 18.5 5 Este 9 Este 0 -- -- 88
2020-10-10 14:00:00 18.4 2 Nordeste 14 Este 0.2 -- -- 90
2020-10-10 13:00:00 17.7 7 Norte 20 Sudeste 5 -- -- 93
2020-10-10 12:00:00 18.9 7 Sudeste 19 Este 1.6 -- -- 91
2020-10-10 11:00:00 20.4 4 Sudeste 8 Este 0 -- -- 87
2020-10-10 10:00:00 19.8 0 Calma 4 Oeste 0 -- -- 90
2020-10-10 09:00:00 19.3 3 Norte 6 Nordeste 0 -- -- 91
2020-10-10 08:00:00 18.8 2 Norte 5 Norte 0 -- -- 92
2020-10-10 07:00:00 18.2 0 Calma 5 Norte 0 -- -- 93
2020-10-10 06:00:00 17.8 3 Norte 5 Norte 0 -- -- 94
2020-10-10 05:00:00 17.2 0 Calma 4 Oeste 0 -- -- 93
2020-10-10 04:00:00 17.8 0 Calma 10 Norte 0 -- -- 92
2020-10-10 03:00:00 18.2 0 Calma 7 Noroeste 0 -- -- 93
2020-10-10 02:00:00 18.6 3 Noroeste 5 Noroeste 0 -- -- 92
2020-10-10 01:00:00 18.6 2 Noroeste 4 Este 0 -- -- 93
2020-10-10 00:00:00 19.6 2 Este 10 Nordeste 0 -- -- 90
2020-10-09 23:00:00 19.6 3 Este 11 Este 0 -- -- 91
2020-10-09 22:00:00 19.8 5 Este 17 Este 0 -- -- 90
2020-10-09 21:00:00 20.2 8 Este 15 Este 0 -- -- 88
2020-10-09 20:00:00 20.7 3 Sudeste 9 Sur 0 -- -- 88
2020-10-09 19:00:00 20.8 4 Sudeste 12 Sudeste 0 -- -- 87
2020-10-09 18:00:00 22.6 3 Sudeste 17 Sudoeste 0 -- -- 82
2020-10-09 17:00:00 23.5 10 Sudoeste 23 Sur 0 -- -- 78
2020-10-09 16:00:00 24.4 8 Sudoeste 23 Sudoeste 0 -- -- 76
2020-10-09 15:00:00 24.6 11 Sudoeste 21 Sudoeste 0 -- -- 72
2020-10-09 14:00:00 24.7 10 Sudoeste 18 Sudoeste 0 -- -- 69
2020-10-09 13:00:00 25.3 6 Sur 13 Sudeste 0 -- -- 65
2020-10-09 12:00:00 25.3 4 Sudeste 10 Este 0 -- -- 63
2020-10-09 11:00:00 23 4 Sudeste 6 Este 0 -- -- 72
2020-10-09 10:00:00 20.8 0 Calma 5 Noroeste 0 -- -- 77
2020-10-09 09:00:00 19.1 3 Sudoeste 6 Noroeste 0 -- -- 83
2020-10-09 08:00:00 -- -- -- -- -- -- -- -- --
2020-10-09 07:00:00 -- -- -- -- -- -- -- -- --
2020-10-09 06:00:00 -- -- -- -- -- -- -- -- --
2020-10-09 05:00:00 -- -- -- -- -- -- -- -- --
2020-10-09 04:00:00 -- -- -- -- -- -- -- -- --
2020-10-09 03:00:00 -- -- -- -- -- -- -- -- --
2020-10-09 02:00:00 -- -- -- -- -- -- -- -- --
2020-10-09 01:00:00 -- -- -- -- -- -- -- -- --
2020-10-09 00:00:00 -- -- -- -- -- -- -- -- --
2020-10-08 23:00:00 -- -- -- -- -- -- -- -- --
2020-10-08 22:00:00 -- -- -- -- -- -- -- -- --
2020-10-08 21:00:00 -- -- -- -- -- -- -- -- --
2020-10-08 20:00:00 -- -- -- -- -- -- -- -- --
2020-10-08 19:00:00 -- -- -- -- -- -- -- -- --
2020-10-08 18:00:00 -- -- -- -- -- -- -- -- --
2020-10-08 17:00:00 -- -- -- -- -- -- -- -- --
2020-10-08 16:00:00 -- -- -- -- -- -- -- -- --
2020-10-08 15:00:00 -- -- -- -- -- -- -- -- --
2020-10-08 14:00:00 -- -- -- -- -- -- -- -- --
2020-10-08 13:00:00 -- -- -- -- -- -- -- -- --
2020-10-08 12:00:00 -- -- -- -- -- -- -- -- --
2020-10-08 11:00:00 -- -- -- -- -- -- -- -- --
2020-10-08 10:00:00 -- -- -- -- -- -- -- -- --
2020-10-08 09:00:00 -- -- -- -- -- -- -- -- --
2020-10-08 08:00:00 -- -- -- -- -- -- -- -- --
2020-10-08 07:00:00 -- -- -- -- -- -- -- -- --
2020-10-08 06:00:00 -- -- -- -- -- -- -- -- --
2020-10-08 05:00:00 -- -- -- -- -- -- -- -- --
2020-10-08 04:00:00 -- -- -- -- -- -- -- -- --
2020-10-08 03:00:00 19.9 6 Oeste 14 Oeste 0 -- -- 74
2020-10-08 02:00:00 19.7 4 Oeste 13 Oeste 0 -- -- 74
2020-10-08 01:00:00 19 7 Noroeste 12 Oeste 0 -- -- 78
2020-10-08 00:00:00 18.9 3 Noroeste 5 Norte 0 -- -- 77
2020-10-07 23:00:00 19.7 2 Noroeste 4 Noroeste 0 -- -- 76
2020-10-07 22:00:00 19.8 2 Noroeste 4 Noroeste 0 -- -- 76
2020-10-07 21:00:00 19.8 0 Calma 9 Sur 0 -- -- 75
2020-10-07 20:00:00 20.3 3 Sudoeste 12 Sur 0 -- -- 75
2020-10-07 19:00:00 20.3 5 Sudoeste 12 Sudoeste 0 -- -- 75
2020-10-07 18:00:00 20.8 4 Sur 13 Sudeste 0 -- -- 73
2020-10-07 17:00:00 21.8 5 Sudeste 19 Sudeste 0 -- -- 69
2020-10-07 16:00:00 21.8 8 Sudeste 17 Sudeste 0 -- -- 73
2020-10-07 15:00:00 23.7 5 Sur 16 Sur 0 -- -- 65
2020-10-07 14:00:00 23.5 6 Sudoeste 13 Sur 0 -- -- 66
2020-10-07 13:00:00 22 5 Sudeste 18 Este 0 -- -- 71
2020-10-07 12:00:00 21.7 10 Este 23 Nordeste 0 -- -- 70
2020-10-07 11:00:00 22.8 13 Este 22 Este 0 -- -- 56
2020-10-07 10:00:00 22.4 3 Norte 6 Norte 0 -- -- 59
2020-10-07 09:00:00 19.2 2 Oeste 12 Norte 0 -- -- 66
2020-10-07 08:00:00 17.9 5 Norte 10 Norte 0 -- -- 70
2020-10-07 07:00:00 18.1 3 Norte 9 Norte 0 -- -- 69
2020-10-07 06:00:00 18.2 3 Norte 8 Nordeste 0 -- -- 69
2020-10-07 05:00:00 18.4 3 Norte 7 Norte 0 -- -- 68
2020-10-07 04:00:00 -- -- -- -- -- -- -- -- --
2020-10-07 03:00:00 -- -- -- -- -- -- -- -- --
2020-10-07 02:00:00 -- -- -- -- -- -- -- -- --
2020-10-07 01:00:00 -- -- -- -- -- -- -- -- --
2020-10-07 00:00:00 -- -- -- -- -- -- -- -- --
2020-10-06 23:00:00 -- -- -- -- -- -- -- -- --
2020-10-06 22:00:00 -- -- -- -- -- -- -- -- --
2020-10-06 21:00:00 -- -- -- -- -- -- -- -- --
2020-10-06 20:00:00 -- -- -- -- -- -- -- -- --
2020-10-06 19:00:00 -- -- -- -- -- -- -- -- --
2020-10-06 18:00:00 -- -- -- -- -- -- -- -- --
2020-10-06 17:00:00 -- -- -- -- -- -- -- -- --
2020-10-06 16:00:00 -- -- -- -- -- -- -- -- --
2020-10-06 15:00:00 -- -- -- -- -- -- -- -- --
2020-10-06 14:00:00 -- -- -- -- -- -- -- -- --
2020-10-06 13:00:00 -- -- -- -- -- -- -- -- --
2020-10-06 12:00:00 -- -- -- -- -- -- -- -- --
2020-10-06 11:00:00 -- -- -- -- -- -- -- -- --
2020-10-06 10:00:00 -- -- -- -- -- -- -- -- --
2020-10-06 09:00:00 -- -- -- -- -- -- -- -- --
2020-10-06 08:00:00 -- -- -- -- -- -- -- -- --
2020-10-06 07:00:00 -- -- -- -- -- -- -- -- --
2020-10-06 06:00:00 -- -- -- -- -- -- -- -- --
2020-10-06 05:00:00 -- -- -- -- -- -- -- -- --
2020-10-06 04:00:00 -- -- -- -- -- -- -- -- --
2020-10-06 03:00:00 -- -- -- -- -- -- -- -- --
2020-10-06 02:00:00 -- -- -- -- -- -- -- -- --
2020-10-06 01:00:00 -- -- -- -- -- -- -- -- --
2020-10-06 00:00:00 -- -- -- -- -- -- -- -- --
2020-10-05 23:00:00 -- -- -- -- -- -- -- -- --
2020-10-05 22:00:00 -- -- -- -- -- -- -- -- --
2020-10-05 21:00:00 -- -- -- -- -- -- -- -- --
2020-10-05 20:00:00 -- -- -- -- -- -- -- -- --
2020-10-05 19:00:00 -- -- -- -- -- -- -- -- --
2020-10-05 18:00:00 -- -- -- -- -- -- -- -- --
2020-10-05 17:00:00 -- -- -- -- -- -- -- -- --
2020-10-05 16:00:00 -- -- -- -- -- -- -- -- --
2020-10-05 15:00:00 -- -- -- -- -- -- -- -- --
2020-10-05 14:00:00 -- -- -- -- -- -- -- -- --
2020-10-05 13:00:00 -- -- -- -- -- -- -- -- --
2020-10-05 12:00:00 -- -- -- -- -- -- -- -- --
2020-10-05 11:00:00 -- -- -- -- -- -- -- -- --
2020-10-05 10:00:00 -- -- -- -- -- -- -- -- --
2020-10-05 09:00:00 -- -- -- -- -- -- -- -- --
2020-10-05 08:00:00 -- -- -- -- -- -- -- -- --
2020-10-05 07:00:00 12.2 4 Norte 17 Noroeste 0 -- -- 65
2020-10-05 06:00:00 12.3 8 Norte 14 Norte 0 -- -- 66
2020-10-05 05:00:00 12.9 2 Noroeste 18 Noroeste 0 -- -- 61
2020-10-05 04:00:00 14.4 9 Norte 20 Noroeste 0 -- -- 59
2020-10-05 03:00:00 14.5 5 Noroeste 14 Norte 0 -- -- 56
2020-10-05 02:00:00 14 6 Norte 11 Norte 0 -- -- 62
2020-10-05 01:00:00 13.7 6 Norte 10 Norte 0 -- -- 61
2020-10-05 00:00:00 14 4 Noroeste 12 Oeste 0 -- -- 59
2020-10-04 23:00:00 16 3 Noroeste 18 Oeste 0 -- -- 51
2020-10-04 22:00:00 17.4 5 Oeste 22 Oeste 0 -- -- 46
2020-10-04 21:00:00 17.9 6 Oeste 29 Oeste 0 -- -- 45
2020-10-04 20:00:00 18.4 9 Oeste 25 Oeste 0 -- -- 46
2020-10-04 19:00:00 19.9 13 Oeste 38 Sudoeste 0 -- -- 43
2020-10-04 18:00:00 21.3 21 Oeste 46 Oeste 0 -- -- 41
2020-10-04 17:00:00 21.3 18 Oeste 44 Sudoeste 0 -- -- 41
2020-10-04 16:00:00 22.2 24 Oeste 43 Sudoeste 0 -- -- 37
2020-10-04 15:00:00 22.6 18 Oeste 40 Oeste 0 -- -- 35
2020-10-04 14:00:00 22.7 13 Sudoeste 35 Oeste 0 -- -- 43
2020-10-04 13:00:00 21.9 19 Oeste 38 Oeste 0 -- -- 38
2020-10-04 12:00:00 20.6 19 Oeste 36 Sudoeste 0 -- -- 41
2020-10-04 11:00:00 19.9 14 Sudoeste 27 Sudoeste 0 -- -- 42
2020-10-04 10:00:00 19.2 10 Sudoeste 16 Oeste 0 -- -- 44
2020-10-04 09:00:00 17.8 2 Sur 5 Sur 0 -- -- 48
2020-10-04 08:00:00 11.3 0 Calma 10 Noroeste 0 -- -- 65
2020-10-04 07:00:00 11.5 4 Noroeste 8 Oeste 0 -- -- 65
2020-10-04 06:00:00 12.7 2 Este 8 Nordeste 0 -- -- 61
2020-10-04 05:00:00 13.1 0 Calma 8 Noroeste 0 -- -- 60
2020-10-04 04:00:00 14.1 6 Oeste 20 Sudoeste 0 -- -- 58
2020-10-04 03:00:00 15.1 4 Oeste 23 Norte 0 -- -- 54
2020-10-04 02:00:00 15 8 Noroeste 22 Noroeste 0 -- -- 55
2020-10-04 01:00:00 14.6 7 Oeste 27 Oeste 0 -- -- 58
2020-10-04 00:00:00 -- -- -- -- -- -- -- -- --
2020-10-03 23:00:00 16.9 15 Oeste 41 Noroeste 0 -- -- 49
2020-10-03 22:00:00 16.6 14 Oeste 25 Oeste 0 -- -- 50
2020-10-03 21:00:00 16.5 10 Sudoeste 33 Noroeste 0 -- -- 50
2020-10-03 20:00:00 17.4 15 Oeste 39 Noroeste 0 -- -- 47
2020-10-03 19:00:00 18 22 Oeste 48 Oeste 0 -- -- 46
2020-10-03 18:00:00 19.1 25 Oeste 51 Oeste 0 -- -- 43
2020-10-03 17:00:00 18.4 26 Oeste 49 Oeste 0 -- -- 44
2020-10-03 16:00:00 18.7 19 Oeste 43 Oeste 0 -- -- 47
2020-10-03 15:00:00 18.3 19 Oeste 50 Oeste 0 -- -- 47
2020-10-03 14:00:00 19.3 20 Oeste 45 Noroeste 0 -- -- 43
2020-10-03 13:00:00 18.6 29 Oeste 53 Oeste 0 -- -- 44
2020-10-03 12:00:00 17.9 28 Oeste 50 Oeste 0 -- -- 45
2020-10-03 11:00:00 17.2 19 Oeste 45 Oeste 0 -- -- 46
2020-10-03 10:00:00 15.5 23 Oeste 51 Oeste 0 -- -- 51
2020-10-03 09:00:00 13.6 21 Oeste 43 Oeste 0 -- -- 57
2020-10-03 08:00:00 11.6 11 Oeste 31 Sudoeste 0 -- -- 62
2020-10-03 07:00:00 11.7 14 Sudoeste 39 Oeste 0 -- -- 61
2020-10-03 06:00:00 11.8 17 Sudoeste 28 Sudoeste 0 -- -- 61
2020-10-03 05:00:00 12 10 Sudoeste 31 Sudoeste 0 -- -- 60
2020-10-03 04:00:00 11 7 Sudoeste 18 Oeste 0 -- -- 68
2020-10-03 03:00:00 11.2 7 Oeste 16 Oeste 0 -- -- 69
2020-10-03 02:00:00 10.7 2 Oeste 15 Oeste 0 -- -- 77
2020-10-03 01:00:00 10.5 4 Noroeste 13 Oeste 0 -- -- 78
2020-10-03 00:00:00 11.5 6 Noroeste 13 Noroeste 0 -- -- 74
2020-10-02 23:00:00 12.6 5 Oeste 15 Oeste 0 -- -- 69
2020-10-02 22:00:00 12.4 4 Noroeste 10 Oeste 0 -- -- 78
2020-10-02 21:00:00 12.8 0 Calma 14 Oeste 0 -- -- 77
2020-10-02 20:00:00 12.8 10 Oeste 19 Oeste 0 -- -- 78
2020-10-02 19:00:00 13.3 5 Sudoeste 17 Norte 0.2 -- -- 81
2020-10-02 18:00:00 13.9 8 Noroeste 31 Noroeste 0.4 -- -- 74
2020-10-02 17:00:00 16.5 15 Oeste 41 Oeste 0 -- -- 67
2020-10-02 16:00:00 16.2 15 Oeste 54 Noroeste 0.2 -- -- 83
2020-10-02 15:00:00 16.5 23 Oeste 64 Sudoeste 0.2 -- -- 76
2020-10-02 14:00:00 21 22 Sudoeste 45 Sudoeste 0 -- -- 77
2020-10-02 13:00:00 20.3 11 Oeste 32 Oeste 0.2 -- -- 85
2020-10-02 12:00:00 20.5 10 Sudoeste 19 Oeste 0.2 -- -- 83
2020-10-02 11:00:00 20.5 7 Oeste 18 Sudoeste 0 -- -- 82
2020-10-02 10:00:00 20.3 8 Sudoeste 15 Sudoeste 0 -- -- 80
2020-10-02 09:00:00 19.6 5 Sudoeste 12 Oeste 0 -- -- 82
2020-10-02 08:00:00 18.5 3 Sudoeste 11 Oeste 0 -- -- 83
2020-10-02 07:00:00 18.8 5 Oeste 10 Noroeste 0 -- -- 82
2020-10-02 06:00:00 18.2 5 Noroeste 12 Noroeste 0 -- -- 82
2020-10-02 05:00:00 18.2 6 Noroeste 10 Noroeste 0 -- -- 83
2020-10-02 04:00:00 17.8 6 Noroeste 9 Norte 0 -- -- 84
2020-10-02 03:00:00 17.8 4 Noroeste 9 Norte 0 -- -- 81
2020-10-02 02:00:00 18.2 4 Norte 8 Noroeste 0 -- -- 80
2020-10-02 01:00:00 19 5 Norte 10 Norte 0 -- -- 78
2020-10-02 00:00:00 18.9 3 Norte 8 Nordeste 0 -- -- 78
2020-10-01 23:00:00 19.4 4 Nordeste 11 Nordeste 0 -- -- 77
2020-10-01 22:00:00 19.5 4 Nordeste 10 Nordeste 0 -- -- 78
2020-10-01 21:00:00 19.5 3 Nordeste 20 Nordeste 0 -- -- 78
2020-10-01 20:00:00 19.9 10 Este 22 Este 0 -- -- 77
2020-10-01 19:00:00 20.1 14 Este 26 Este 0 -- -- 76
2020-10-01 18:00:00 20.4 13 Este 31 Este 0 -- -- 75
2020-10-01 17:00:00 20.9 18 Este 34 Este 0 -- -- 77
2020-10-01 16:00:00 25 11 Sudoeste 23 Sudoeste 0 -- -- 68
2020-10-01 15:00:00 25.7 10 Sudoeste 23 Sudoeste 0 -- -- 67
2020-10-01 14:00:00 25.4 10 Sudoeste 23 Sur 0 -- -- 72
2020-10-01 13:00:00 26.3 9 Sudoeste 24 Sudoeste 0 -- -- 62
2020-10-01 12:00:00 25.9 10 Sudoeste 22 Sur 0 -- -- 62
2020-10-01 11:00:00 23.3 12 Oeste 21 Sudoeste 0 -- -- 70
2020-10-01 10:00:00 22.7 8 Oeste 15 Oeste 0 -- -- 73
2020-10-01 09:00:00 20.6 5 Sudoeste 13 Oeste 0 -- -- 77
2020-10-01 08:00:00 20.3 7 Oeste 15 Oeste 0 -- -- 76
2020-10-01 07:00:00 20 9 Oeste 19 Oeste 0 -- -- 77
2020-10-01 06:00:00 20.3 10 Oeste 24 Oeste 0 -- -- 76
2020-10-01 05:00:00 19.7 6 Oeste 22 Sudoeste 0 -- -- 76
2020-10-01 04:00:00 19.7 6 Noroeste 19 Oeste 0 -- -- 79
2020-10-01 03:00:00 19.6 5 Noroeste 18 Oeste 0 -- -- 78
2020-10-01 02:00:00 19.8 8 Oeste 20 Oeste 0 -- -- 79
2020-10-01 01:00:00 19.1 6 Oeste 13 Oeste 0 -- -- 80
2020-10-01 00:00:00 17.7 4 Norte 6 Noroeste 0 -- -- 84